sensor_id;sensor_type;location;lat;lon;timestamp;P1;durP1;ratioP1;P2;durP2;ratioP2
60700;SDS011;46541;49.894;10.886;2024-02-26T00:00:37;13.77;;;7.22;;
60700;SDS011;46541;49.894;10.886;2024-02-26T00:03:05;14.85;;;6.90;;
60700;SDS011;46541;49.894;10.886;2024-02-26T00:05:31;14.88;;;7.07;;
60700;SDS011;46541;49.894;10.886;2024-02-26T00:07:58;14.40;;;7.93;;
60700;SDS011;46541;49.894;10.886;2024-02-26T00:10:31;15.50;;;7.88;;
60700;SDS011;46541;49.894;10.886;2024-02-26T00:12:57;18.02;;;7.20;;
60700;SDS011;46541;49.894;10.886;2024-02-26T00:15:24;13.65;;;6.93;;
60700;SDS011;46541;49.894;10.886;2024-02-26T00:17:51;15.20;;;7.45;;
60700;SDS011;46541;49.894;10.886;2024-02-26T00:20:18;13.65;;;6.85;;
60700;SDS011;46541;49.894;10.886;2024-02-26T00:22:45;17.20;;;7.43;;
60700;SDS011;46541;49.894;10.886;2024-02-26T00:25:12;11.85;;;7.03;;
60700;SDS011;46541;49.894;10.886;2024-02-26T00:27:39;11.98;;;6.85;;
60700;SDS011;46541;49.894;10.886;2024-02-26T00:30:07;11.32;;;5.80;;
60700;SDS011;46541;49.894;10.886;2024-02-26T00:32:35;9.70;;;5.88;;
60700;SDS011;46541;49.894;10.886;2024-02-26T00:35:02;11.25;;;6.47;;
60700;SDS011;46541;49.894;10.886;2024-02-26T00:37:29;9.00;;;5.45;;
60700;SDS011;46541;49.894;10.886;2024-02-26T00:39:55;8.40;;;5.13;;
60700;SDS011;46541;49.894;10.886;2024-02-26T00:42:22;10.13;;;5.05;;
60700;SDS011;46541;49.894;10.886;2024-02-26T00:44:49;10.88;;;4.75;;
60700;SDS011;46541;49.894;10.886;2024-02-26T00:47:16;9.38;;;5.30;;
60700;SDS011;46541;49.894;10.886;2024-02-26T00:49:42;8.27;;;4.55;;
60700;SDS011;46541;49.894;10.886;2024-02-26T00:52:09;10.13;;;5.18;;
60700;SDS011;46541;49.894;10.886;2024-02-26T00:54:36;11.77;;;5.28;;
60700;SDS011;46541;49.894;10.886;2024-02-26T00:57:03;9.55;;;4.55;;
60700;SDS011;46541;49.894;10.886;2024-02-26T00:59:30;8.18;;;4.90;;
60700;SDS011;46541;49.894;10.886;2024-02-26T01:01:56;6.38;;;4.20;;
60700;SDS011;46541;49.894;10.886;2024-02-26T01:04:24;8.40;;;4.43;;
60700;SDS011;46541;49.894;10.886;2024-02-26T01:06:51;8.27;;;4.70;;
60700;SDS011;46541;49.894;10.886;2024-02-26T01:09:18;12.13;;;5.40;;
60700;SDS011;46541;49.894;10.886;2024-02-26T01:11:45;8.27;;;4.57;;
60700;SDS011;46541;49.894;10.886;2024-02-26T01:14:13;8.70;;;4.30;;
60700;SDS011;46541;49.894;10.886;2024-02-26T01:16:40;11.00;;;4.93;;
60700;SDS011;46541;49.894;10.886;2024-02-26T01:19:07;12.15;;;4.75;;
60700;SDS011;46541;49.894;10.886;2024-02-26T01:21:34;7.60;;;4.18;;
60700;SDS011;46541;49.894;10.886;2024-02-26T01:24:01;9.95;;;4.72;;
60700;SDS011;46541;49.894;10.886;2024-02-26T01:26:28;12.23;;;4.60;;
60700;SDS011;46541;49.894;10.886;2024-02-26T01:28:55;13.65;;;5.28;;
60700;SDS011;46541;49.894;10.886;2024-02-26T01:31:21;10.05;;;4.80;;
60700;SDS011;46541;49.894;10.886;2024-02-26T01:33:48;13.60;;;5.65;;
60700;SDS011;46541;49.894;10.886;2024-02-26T01:36:15;16.38;;;6.13;;
60700;SDS011;46541;49.894;10.886;2024-02-26T01:38:42;12.45;;;4.78;;
60700;SDS011;46541;49.894;10.886;2024-02-26T01:41:09;14.68;;;5.45;;
60700;SDS011;46541;49.894;10.886;2024-02-26T01:43:36;7.55;;;4.28;;
60700;SDS011;46541;49.894;10.886;2024-02-26T01:46:03;9.40;;;4.88;;
60700;SDS011;46541;49.894;10.886;2024-02-26T01:48:30;8.75;;;3.75;;
60700;SDS011;46541;49.894;10.886;2024-02-26T01:50:57;7.60;;;3.63;;
60700;SDS011;46541;49.894;10.886;2024-02-26T01:53:24;5.70;;;3.50;;
60700;SDS011;46541;49.894;10.886;2024-02-26T01:55:51;6.55;;;3.70;;
60700;SDS011;46541;49.894;10.886;2024-02-26T01:58:18;7.63;;;4.50;;
60700;SDS011;46541;49.894;10.886;2024-02-26T02:00:45;8.18;;;3.80;;
60700;SDS011;46541;49.894;10.886;2024-02-26T02:03:12;5.43;;;3.70;;
60700;SDS011;46541;49.894;10.886;2024-02-26T02:05:39;7.35;;;4.07;;
60700;SDS011;46541;49.894;10.886;2024-02-26T02:08:12;6.70;;;3.92;;
60700;SDS011;46541;49.894;10.886;2024-02-26T02:10:43;6.55;;;3.55;;
60700;SDS011;46541;49.894;10.886;2024-02-26T02:13:10;9.15;;;4.40;;
60700;SDS011;46541;49.894;10.886;2024-02-26T02:15:37;7.55;;;3.67;;
60700;SDS011;46541;49.894;10.886;2024-02-26T02:18:04;6.60;;;3.92;;
60700;SDS011;46541;49.894;10.886;2024-02-26T02:20:32;5.40;;;3.58;;
60700;SDS011;46541;49.894;10.886;2024-02-26T02:22:59;7.40;;;3.80;;
60700;SDS011;46541;49.894;10.886;2024-02-26T02:25:27;7.35;;;3.40;;
60700;SDS011;46541;49.894;10.886;2024-02-26T02:27:54;5.57;;;3.50;;
60700;SDS011;46541;49.894;10.886;2024-02-26T02:30:25;6.15;;;3.70;;
60700;SDS011;46541;49.894;10.886;2024-02-26T02:32:55;7.78;;;3.70;;
60700;SDS011;46541;49.894;10.886;2024-02-26T02:35:25;12.95;;;3.67;;
60700;SDS011;46541;49.894;10.886;2024-02-26T02:37:52;4.93;;;3.05;;
60700;SDS011;46541;49.894;10.886;2024-02-26T02:40:19;5.63;;;3.35;;
60700;SDS011;46541;49.894;10.886;2024-02-26T02:42:46;5.47;;;3.22;;
60700;SDS011;46541;49.894;10.886;2024-02-26T02:45:13;6.25;;;3.97;;
60700;SDS011;46541;49.894;10.886;2024-02-26T02:47:39;4.55;;;3.20;;
60700;SDS011;46541;49.894;10.886;2024-02-26T02:50:06;7.32;;;3.80;;
60700;SDS011;46541;49.894;10.886;2024-02-26T02:52:33;7.93;;;4.03;;
60700;SDS011;46541;49.894;10.886;2024-02-26T02:55:00;7.93;;;3.80;;
60700;SDS011;46541;49.894;10.886;2024-02-26T02:57:27;7.28;;;3.63;;
60700;SDS011;46541;49.894;10.886;2024-02-26T02:59:55;8.48;;;3.80;;
60700;SDS011;46541;49.894;10.886;2024-02-26T03:02:22;6.93;;;3.88;;
60700;SDS011;46541;49.894;10.886;2024-02-26T03:04:51;5.55;;;3.60;;
60700;SDS011;46541;49.894;10.886;2024-02-26T03:07:18;6.47;;;3.30;;
60700;SDS011;46541;49.894;10.886;2024-02-26T03:09:44;6.20;;;3.30;;
60700;SDS011;46541;49.894;10.886;2024-02-26T03:12:11;4.40;;;3.03;;
60700;SDS011;46541;49.894;10.886;2024-02-26T03:14:39;5.68;;;3.45;;
60700;SDS011;46541;49.894;10.886;2024-02-26T03:17:05;9.00;;;4.00;;
60700;SDS011;46541;49.894;10.886;2024-02-26T03:19:32;6.63;;;3.60;;
60700;SDS011;46541;49.894;10.886;2024-02-26T03:21:59;8.25;;;3.90;;
60700;SDS011;46541;49.894;10.886;2024-02-26T03:24:26;6.57;;;3.30;;
60700;SDS011;46541;49.894;10.886;2024-02-26T03:26:52;6.72;;;3.50;;
60700;SDS011;46541;49.894;10.886;2024-02-26T03:29:19;8.50;;;3.53;;
60700;SDS011;46541;49.894;10.886;2024-02-26T03:31:46;5.95;;;3.58;;
60700;SDS011;46541;49.894;10.886;2024-02-26T03:34:13;7.75;;;3.90;;
60700;SDS011;46541;49.894;10.886;2024-02-26T03:36:41;6.60;;;3.38;;
60700;SDS011;46541;49.894;10.886;2024-02-26T03:39:08;6.88;;;3.50;;
60700;SDS011;46541;49.894;10.886;2024-02-26T03:41:35;8.57;;;4.13;;
60700;SDS011;46541;49.894;10.886;2024-02-26T03:44:02;10.32;;;4.55;;
60700;SDS011;46541;49.894;10.886;2024-02-26T03:46:29;7.60;;;4.82;;
60700;SDS011;46541;49.894;10.886;2024-02-26T03:48:56;11.70;;;5.30;;
60700;SDS011;46541;49.894;10.886;2024-02-26T03:51:23;8.27;;;4.15;;
60700;SDS011;46541;49.894;10.886;2024-02-26T03:53:50;35.03;;;20.95;;
60700;SDS011;46541;49.894;10.886;2024-02-26T03:56:17;26.33;;;14.90;;
60700;SDS011;46541;49.894;10.886;2024-02-26T03:58:43;15.10;;;10.52;;
60700;SDS011;46541;49.894;10.886;2024-02-26T04:01:10;12.18;;;7.55;;
60700;SDS011;46541;49.894;10.886;2024-02-26T04:03:37;6.88;;;4.88;;
60700;SDS011;46541;49.894;10.886;2024-02-26T04:06:04;7.13;;;4.30;;
60700;SDS011;46541;49.894;10.886;2024-02-26T04:08:34;5.57;;;3.83;;
60700;SDS011;46541;49.894;10.886;2024-02-26T04:11:01;7.78;;;4.40;;
60700;SDS011;46541;49.894;10.886;2024-02-26T04:13:28;9.70;;;4.65;;
60700;SDS011;46541;49.894;10.886;2024-02-26T04:15:55;6.32;;;4.47;;
60700;SDS011;46541;49.894;10.886;2024-02-26T04:18:23;7.55;;;4.35;;
60700;SDS011;46541;49.894;10.886;2024-02-26T04:20:50;9.38;;;6.70;;
60700;SDS011;46541;49.894;10.886;2024-02-26T04:23:17;10.05;;;5.10;;
60700;SDS011;46541;49.894;10.886;2024-02-26T04:25:44;40.67;;;32.22;;
60700;SDS011;46541;49.894;10.886;2024-02-26T04:28:11;13.40;;;8.82;;
60700;SDS011;46541;49.894;10.886;2024-02-26T04:30:38;10.10;;;5.40;;
60700;SDS011;46541;49.894;10.886;2024-02-26T04:33:05;8.98;;;5.60;;
60700;SDS011;46541;49.894;10.886;2024-02-26T04:35:32;9.18;;;5.35;;
60700;SDS011;46541;49.894;10.886;2024-02-26T04:37:58;9.80;;;4.07;;
60700;SDS011;46541;49.894;10.886;2024-02-26T04:40:25;7.72;;;3.92;;
60700;SDS011;46541;49.894;10.886;2024-02-26T04:42:52;5.43;;;4.03;;
60700;SDS011;46541;49.894;10.886;2024-02-26T04:45:19;7.70;;;3.50;;
60700;SDS011;46541;49.894;10.886;2024-02-26T04:47:46;8.02;;;3.60;;
60700;SDS011;46541;49.894;10.886;2024-02-26T04:50:13;5.30;;;3.63;;
60700;SDS011;46541;49.894;10.886;2024-02-26T04:52:40;5.25;;;3.30;;
60700;SDS011;46541;49.894;10.886;2024-02-26T04:55:07;6.45;;;3.80;;
60700;SDS011;46541;49.894;10.886;2024-02-26T04:57:34;7.53;;;3.47;;
60700;SDS011;46541;49.894;10.886;2024-02-26T05:00:01;5.40;;;3.33;;
60700;SDS011;46541;49.894;10.886;2024-02-26T05:02:28;7.13;;;4.38;;
60700;SDS011;46541;49.894;10.886;2024-02-26T05:04:56;7.50;;;4.07;;
60700;SDS011;46541;49.894;10.886;2024-02-26T05:07:23;6.93;;;3.42;;
60700;SDS011;46541;49.894;10.886;2024-02-26T05:09:49;5.68;;;3.28;;
60700;SDS011;46541;49.894;10.886;2024-02-26T05:12:16;5.30;;;3.38;;
60700;SDS011;46541;49.894;10.886;2024-02-26T05:14:43;5.97;;;3.92;;
60700;SDS011;46541;49.894;10.886;2024-02-26T05:17:10;5.78;;;3.38;;
60700;SDS011;46541;49.894;10.886;2024-02-26T05:19:37;7.60;;;4.25;;
60700;SDS011;46541;49.894;10.886;2024-02-26T05:22:03;6.30;;;3.55;;
60700;SDS011;46541;49.894;10.886;2024-02-26T05:24:30;6.25;;;3.10;;
60700;SDS011;46541;49.894;10.886;2024-02-26T05:26:57;7.18;;;3.75;;
60700;SDS011;46541;49.894;10.886;2024-02-26T05:29:24;6.20;;;3.75;;
60700;SDS011;46541;49.894;10.886;2024-02-26T05:31:51;9.00;;;3.63;;
60700;SDS011;46541;49.894;10.886;2024-02-26T05:34:20;6.78;;;3.83;;
60700;SDS011;46541;49.894;10.886;2024-02-26T05:36:48;7.43;;;3.80;;
60700;SDS011;46541;49.894;10.886;2024-02-26T05:39:15;9.80;;;3.88;;
60700;SDS011;46541;49.894;10.886;2024-02-26T05:41:46;9.85;;;4.22;;
60700;SDS011;46541;49.894;10.886;2024-02-26T05:44:13;7.43;;;3.60;;
60700;SDS011;46541;49.894;10.886;2024-02-26T05:46:40;8.48;;;5.13;;
60700;SDS011;46541;49.894;10.886;2024-02-26T05:49:08;6.40;;;4.15;;
60700;SDS011;46541;49.894;10.886;2024-02-26T05:51:35;10.27;;;4.85;;
60700;SDS011;46541;49.894;10.886;2024-02-26T05:54:01;9.35;;;5.40;;
60700;SDS011;46541;49.894;10.886;2024-02-26T05:56:28;15.13;;;12.52;;
60700;SDS011;46541;49.894;10.886;2024-02-26T05:58:55;15.82;;;11.77;;
60700;SDS011;46541;49.894;10.886;2024-02-26T06:01:22;12.27;;;9.32;;
60700;SDS011;46541;49.894;10.886;2024-02-26T06:03:49;13.10;;;9.80;;
60700;SDS011;46541;49.894;10.886;2024-02-26T06:06:16;8.95;;;6.05;;
60700;SDS011;46541;49.894;10.886;2024-02-26T06:08:44;8.73;;;5.30;;
60700;SDS011;46541;49.894;10.886;2024-02-26T06:11:10;8.73;;;4.65;;
60700;SDS011;46541;49.894;10.886;2024-02-26T06:13:37;10.85;;;4.32;;
60700;SDS011;46541;49.894;10.886;2024-02-26T06:16:04;8.57;;;5.03;;
60700;SDS011;46541;49.894;10.886;2024-02-26T06:18:31;8.38;;;5.00;;
60700;SDS011;46541;49.894;10.886;2024-02-26T06:20:58;11.88;;;5.72;;
60700;SDS011;46541;49.894;10.886;2024-02-26T06:23:25;6.75;;;4.78;;
60700;SDS011;46541;49.894;10.886;2024-02-26T06:25:52;11.55;;;5.15;;
60700;SDS011;46541;49.894;10.886;2024-02-26T06:28:19;8.15;;;5.30;;
60700;SDS011;46541;49.894;10.886;2024-02-26T06:30:46;8.05;;;4.35;;
60700;SDS011;46541;49.894;10.886;2024-02-26T06:33:13;7.80;;;4.70;;
60700;SDS011;46541;49.894;10.886;2024-02-26T06:35:40;7.78;;;4.05;;
60700;SDS011;46541;49.894;10.886;2024-02-26T06:38:08;8.30;;;4.90;;
60700;SDS011;46541;49.894;10.886;2024-02-26T06:40:35;7.13;;;4.53;;
60700;SDS011;46541;49.894;10.886;2024-02-26T06:43:05;11.75;;;5.43;;
60700;SDS011;46541;49.894;10.886;2024-02-26T06:45:32;14.27;;;5.75;;
60700;SDS011;46541;49.894;10.886;2024-02-26T06:47:59;9.30;;;5.28;;
60700;SDS011;46541;49.894;10.886;2024-02-26T06:50:26;14.43;;;6.00;;
60700;SDS011;46541;49.894;10.886;2024-02-26T06:52:52;9.93;;;5.10;;
60700;SDS011;46541;49.894;10.886;2024-02-26T06:55:19;12.48;;;6.22;;
60700;SDS011;46541;49.894;10.886;2024-02-26T06:57:46;13.90;;;7.22;;
60700;SDS011;46541;49.894;10.886;2024-02-26T07:00:13;14.98;;;7.53;;
60700;SDS011;46541;49.894;10.886;2024-02-26T07:02:43;12.02;;;6.22;;
60700;SDS011;46541;49.894;10.886;2024-02-26T07:05:10;12.68;;;6.80;;
60700;SDS011;46541;49.894;10.886;2024-02-26T07:07:37;13.25;;;6.03;;
60700;SDS011;46541;49.894;10.886;2024-02-26T07:10:04;9.88;;;5.18;;
60700;SDS011;46541;49.894;10.886;2024-02-26T07:12:32;12.75;;;6.25;;
60700;SDS011;46541;49.894;10.886;2024-02-26T07:14:59;10.20;;;5.47;;
60700;SDS011;46541;49.894;10.886;2024-02-26T07:17:27;16.80;;;6.75;;
60700;SDS011;46541;49.894;10.886;2024-02-26T07:19:54;17.10;;;8.50;;
60700;SDS011;46541;49.894;10.886;2024-02-26T07:22:20;18.25;;;7.32;;
60700;SDS011;46541;49.894;10.886;2024-02-26T07:24:47;19.80;;;7.90;;
60700;SDS011;46541;49.894;10.886;2024-02-26T07:27:14;17.92;;;8.18;;
60700;SDS011;46541;49.894;10.886;2024-02-26T07:29:43;17.40;;;7.57;;
60700;SDS011;46541;49.894;10.886;2024-02-26T07:32:10;12.82;;;5.72;;
60700;SDS011;46541;49.894;10.886;2024-02-26T07:34:37;29.75;;;17.42;;
60700;SDS011;46541;49.894;10.886;2024-02-26T07:37:08;71.88;;;36.17;;
60700;SDS011;46541;49.894;10.886;2024-02-26T07:39:35;35.03;;;15.35;;
60700;SDS011;46541;49.894;10.886;2024-02-26T07:42:03;36.45;;;17.85;;
60700;SDS011;46541;49.894;10.886;2024-02-26T07:44:30;43.20;;;21.23;;
60700;SDS011;46541;49.894;10.886;2024-02-26T07:47:00;41.75;;;19.67;;
60700;SDS011;46541;49.894;10.886;2024-02-26T07:49:27;22.10;;;10.05;;
60700;SDS011;46541;49.894;10.886;2024-02-26T07:51:57;20.50;;;8.73;;
60700;SDS011;46541;49.894;10.886;2024-02-26T07:54:24;13.82;;;7.93;;
60700;SDS011;46541;49.894;10.886;2024-02-26T07:56:51;14.35;;;7.30;;
60700;SDS011;46541;49.894;10.886;2024-02-26T07:59:18;15.68;;;6.65;;
60700;SDS011;46541;49.894;10.886;2024-02-26T08:01:49;14.70;;;6.57;;
60700;SDS011;46541;49.894;10.886;2024-02-26T08:04:22;14.90;;;6.63;;
60700;SDS011;46541;49.894;10.886;2024-02-26T08:06:49;25.40;;;6.20;;
60700;SDS011;46541;49.894;10.886;2024-02-26T08:09:16;15.93;;;6.47;;
60700;SDS011;46541;49.894;10.886;2024-02-26T08:11:43;18.25;;;6.72;;
60700;SDS011;46541;49.894;10.886;2024-02-26T08:14:10;19.33;;;6.97;;
60700;SDS011;46541;49.894;10.886;2024-02-26T08:16:36;18.15;;;6.53;;
60700;SDS011;46541;49.894;10.886;2024-02-26T08:19:03;18.00;;;6.82;;
60700;SDS011;46541;49.894;10.886;2024-02-26T08:21:30;11.23;;;5.72;;
60700;SDS011;46541;49.894;10.886;2024-02-26T08:23:57;12.00;;;5.90;;
60700;SDS011;46541;49.894;10.886;2024-02-26T08:26:23;18.77;;;6.78;;
60700;SDS011;46541;49.894;10.886;2024-02-26T08:28:50;15.90;;;6.90;;
60700;SDS011;46541;49.894;10.886;2024-02-26T08:31:17;17.23;;;6.32;;
60700;SDS011;46541;49.894;10.886;2024-02-26T08:33:44;14.15;;;7.28;;
60700;SDS011;46541;49.894;10.886;2024-02-26T08:36:11;16.58;;;9.27;;
60700;SDS011;46541;49.894;10.886;2024-02-26T08:38:38;12.32;;;7.22;;
60700;SDS011;46541;49.894;10.886;2024-02-26T08:41:05;14.50;;;6.80;;
60700;SDS011;46541;49.894;10.886;2024-02-26T08:43:31;15.93;;;6.75;;
60700;SDS011;46541;49.894;10.886;2024-02-26T08:45:58;16.50;;;7.07;;
60700;SDS011;46541;49.894;10.886;2024-02-26T08:48:25;13.65;;;6.28;;
60700;SDS011;46541;49.894;10.886;2024-02-26T08:50:52;14.40;;;6.22;;
60700;SDS011;46541;49.894;10.886;2024-02-26T08:53:19;14.05;;;6.40;;
60700;SDS011;46541;49.894;10.886;2024-02-26T08:55:56;13.77;;;6.65;;
60700;SDS011;46541;49.894;10.886;2024-02-26T08:58:23;13.48;;;6.03;;
60700;SDS011;46541;49.894;10.886;2024-02-26T09:00:50;12.23;;;5.80;;
60700;SDS011;46541;49.894;10.886;2024-02-26T09:03:17;36.30;;;20.55;;
60700;SDS011;46541;49.894;10.886;2024-02-26T09:05:44;79.13;;;45.35;;
60700;SDS011;46541;49.894;10.886;2024-02-26T09:08:11;48.17;;;26.50;;
60700;SDS011;46541;49.894;10.886;2024-02-26T09:10:38;40.10;;;21.25;;
60700;SDS011;46541;49.894;10.886;2024-02-26T09:13:05;14.75;;;9.68;;
60700;SDS011;46541;49.894;10.886;2024-02-26T09:15:32;23.45;;;8.15;;
60700;SDS011;46541;49.894;10.886;2024-02-26T09:17:59;16.20;;;8.20;;
60700;SDS011;46541;49.894;10.886;2024-02-26T09:20:26;16.98;;;8.73;;
60700;SDS011;46541;49.894;10.886;2024-02-26T09:22:53;18.30;;;8.68;;
60700;SDS011;46541;49.894;10.886;2024-02-26T09:25:19;12.57;;;7.43;;
60700;SDS011;46541;49.894;10.886;2024-02-26T09:27:46;19.30;;;10.13;;
60700;SDS011;46541;49.894;10.886;2024-02-26T09:30:14;15.57;;;8.48;;
60700;SDS011;46541;49.894;10.886;2024-02-26T09:32:40;17.42;;;8.23;;
60700;SDS011;46541;49.894;10.886;2024-02-26T09:35:07;13.27;;;6.80;;
60700;SDS011;46541;49.894;10.886;2024-02-26T09:37:34;11.38;;;6.00;;
60700;SDS011;46541;49.894;10.886;2024-02-26T09:40:03;13.63;;;7.35;;
60700;SDS011;46541;49.894;10.886;2024-02-26T09:42:32;14.57;;;6.82;;
60700;SDS011;46541;49.894;10.886;2024-02-26T09:45:00;18.75;;;7.10;;
60700;SDS011;46541;49.894;10.886;2024-02-26T09:47:34;17.50;;;7.22;;
60700;SDS011;46541;49.894;10.886;2024-02-26T09:50:05;17.45;;;6.97;;
60700;SDS011;46541;49.894;10.886;2024-02-26T09:52:35;10.73;;;6.45;;
60700;SDS011;46541;49.894;10.886;2024-02-26T09:55:04;11.63;;;6.50;;
60700;SDS011;46541;49.894;10.886;2024-02-26T09:57:34;13.27;;;8.27;;
60700;SDS011;46541;49.894;10.886;2024-02-26T10:00:03;15.70;;;7.53;;
60700;SDS011;46541;49.894;10.886;2024-02-26T10:02:32;12.52;;;7.70;;
60700;SDS011;46541;49.894;10.886;2024-02-26T10:04:59;11.93;;;6.63;;
60700;SDS011;46541;49.894;10.886;2024-02-26T10:07:31;13.00;;;7.40;;
60700;SDS011;46541;49.894;10.886;2024-02-26T10:09:58;13.07;;;7.50;;
60700;SDS011;46541;49.894;10.886;2024-02-26T10:12:25;14.55;;;7.07;;
60700;SDS011;46541;49.894;10.886;2024-02-26T10:14:54;13.27;;;7.25;;
60700;SDS011;46541;49.894;10.886;2024-02-26T10:17:21;15.30;;;6.45;;
60700;SDS011;46541;49.894;10.886;2024-02-26T10:19:48;12.23;;;6.65;;
60700;SDS011;46541;49.894;10.886;2024-02-26T10:22:18;15.13;;;6.75;;
60700;SDS011;46541;49.894;10.886;2024-02-26T10:24:46;14.30;;;7.25;;
60700;SDS011;46541;49.894;10.886;2024-02-26T10:27:13;17.25;;;9.75;;
60700;SDS011;46541;49.894;10.886;2024-02-26T10:29:41;12.10;;;6.70;;
60700;SDS011;46541;49.894;10.886;2024-02-26T10:32:09;11.13;;;6.57;;
60700;SDS011;46541;49.894;10.886;2024-02-26T10:34:37;13.65;;;6.72;;
60700;SDS011;46541;49.894;10.886;2024-02-26T10:37:07;11.43;;;6.28;;
60700;SDS011;46541;49.894;10.886;2024-02-26T10:39:36;15.02;;;7.15;;
60700;SDS011;46541;49.894;10.886;2024-02-26T10:42:04;11.20;;;5.53;;
60700;SDS011;46541;49.894;10.886;2024-02-26T10:44:36;13.20;;;6.00;;
60700;SDS011;46541;49.894;10.886;2024-02-26T10:47:02;7.25;;;5.53;;
60700;SDS011;46541;49.894;10.886;2024-02-26T10:49:29;12.18;;;6.38;;
60700;SDS011;46541;49.894;10.886;2024-02-26T10:51:56;10.77;;;7.00;;
60700;SDS011;46541;49.894;10.886;2024-02-26T10:54:25;8.45;;;5.53;;
60700;SDS011;46541;49.894;10.886;2024-02-26T10:56:55;10.43;;;5.38;;
60700;SDS011;46541;49.894;10.886;2024-02-26T10:59:24;11.43;;;6.00;;
60700;SDS011;46541;49.894;10.886;2024-02-26T11:01:51;13.30;;;5.40;;
60700;SDS011;46541;49.894;10.886;2024-02-26T11:04:18;9.80;;;5.20;;
60700;SDS011;46541;49.894;10.886;2024-02-26T11:06:47;9.30;;;5.75;;
60700;SDS011;46541;49.894;10.886;2024-02-26T11:09:16;8.73;;;5.60;;
60700;SDS011;46541;49.894;10.886;2024-02-26T11:11:45;14.13;;;8.05;;
60700;SDS011;46541;49.894;10.886;2024-02-26T11:14:13;21.63;;;11.80;;
60700;SDS011;46541;49.894;10.886;2024-02-26T11:16:40;10.70;;;6.88;;
60700;SDS011;46541;49.894;10.886;2024-02-26T11:19:09;7.43;;;4.80;;
60700;SDS011;46541;49.894;10.886;2024-02-26T11:21:38;5.57;;;4.15;;
60700;SDS011;46541;49.894;10.886;2024-02-26T11:24:10;10.90;;;6.22;;
60700;SDS011;46541;49.894;10.886;2024-02-26T11:26:43;12.27;;;9.50;;
60700;SDS011;46541;49.894;10.886;2024-02-26T11:29:21;16.52;;;11.48;;
60700;SDS011;46541;49.894;10.886;2024-02-26T11:31:50;24.30;;;16.90;;
60700;SDS011;46541;49.894;10.886;2024-02-26T11:34:17;12.18;;;8.77;;
60700;SDS011;46541;49.894;10.886;2024-02-26T11:36:45;56.67;;;40.25;;
60700;SDS011;46541;49.894;10.886;2024-02-26T11:39:12;18.00;;;12.40;;
60700;SDS011;46541;49.894;10.886;2024-02-26T11:41:43;12.25;;;8.00;;
60700;SDS011;46541;49.894;10.886;2024-02-26T11:44:10;10.38;;;6.80;;
60700;SDS011;46541;49.894;10.886;2024-02-26T11:46:40;8.63;;;5.55;;
60700;SDS011;46541;49.894;10.886;2024-02-26T11:51:55;6.78;;;4.63;;
60700;SDS011;46541;49.894;10.886;2024-02-26T11:55:05;4.90;;;3.53;;
60700;SDS011;46541;49.894;10.886;2024-02-26T11:59:48;4.65;;;3.20;;
60700;SDS011;46541;49.894;10.886;2024-02-26T12:02:58;6.90;;;3.50;;
60700;SDS011;46541;49.894;10.886;2024-02-26T12:05:30;7.07;;;4.05;;
60700;SDS011;46541;49.894;10.886;2024-02-26T12:08:05;6.45;;;3.45;;
60700;SDS011;46541;49.894;10.886;2024-02-26T12:10:38;5.97;;;3.70;;
60700;SDS011;46541;49.894;10.886;2024-02-26T12:13:13;5.45;;;3.13;;
60700;SDS011;46541;49.894;10.886;2024-02-26T12:16:07;5.13;;;3.35;;
60700;SDS011;46541;49.894;10.886;2024-02-26T12:18:32;5.68;;;3.33;;
60700;SDS011;46541;49.894;10.886;2024-02-26T12:21:03;5.05;;;3.20;;
60700;SDS011;46541;49.894;10.886;2024-02-26T12:23:31;5.13;;;3.28;;
60700;SDS011;46541;49.894;10.886;2024-02-26T12:25:58;6.57;;;3.67;;
60700;SDS011;46541;49.894;10.886;2024-02-26T12:28:28;6.28;;;3.63;;
60700;SDS011;46541;49.894;10.886;2024-02-26T12:30:55;4.45;;;2.95;;
60700;SDS011;46541;49.894;10.886;2024-02-26T12:33:25;6.13;;;3.22;;
60700;SDS011;46541;49.894;10.886;2024-02-26T12:35:53;4.45;;;3.28;;
60700;SDS011;46541;49.894;10.886;2024-02-26T12:38:20;5.78;;;4.00;;
60700;SDS011;46541;49.894;10.886;2024-02-26T12:40:47;4.18;;;3.35;;
60700;SDS011;46541;49.894;10.886;2024-02-26T12:43:16;5.97;;;3.63;;
60700;SDS011;46541;49.894;10.886;2024-02-26T12:45:43;5.45;;;3.47;;
60700;SDS011;46541;49.894;10.886;2024-02-26T12:48:14;5.50;;;3.70;;
60700;SDS011;46541;49.894;10.886;2024-02-26T12:50:44;8.07;;;3.03;;
60700;SDS011;46541;49.894;10.886;2024-02-26T12:53:13;5.75;;;3.33;;
60700;SDS011;46541;49.894;10.886;2024-02-26T12:55:40;4.15;;;3.30;;
60700;SDS011;46541;49.894;10.886;2024-02-26T12:58:08;6.75;;;4.03;;
60700;SDS011;46541;49.894;10.886;2024-02-26T13:00:35;3.35;;;2.70;;
60700;SDS011;46541;49.894;10.886;2024-02-26T13:03:02;5.10;;;2.90;;
60700;SDS011;46541;49.894;10.886;2024-02-26T13:05:30;3.95;;;2.70;;
60700;SDS011;46541;49.894;10.886;2024-02-26T13:07:57;6.97;;;4.05;;
60700;SDS011;46541;49.894;10.886;2024-02-26T13:10:24;6.88;;;3.00;;
60700;SDS011;46541;49.894;10.886;2024-02-26T13:12:51;4.43;;;3.22;;
60700;SDS011;46541;49.894;10.886;2024-02-26T13:15:20;4.88;;;3.50;;
60700;SDS011;46541;49.894;10.886;2024-02-26T13:17:48;3.70;;;2.65;;
60700;SDS011;46541;49.894;10.886;2024-02-26T13:20:25;6.60;;;3.83;;
60700;SDS011;46541;49.894;10.886;2024-02-26T13:23:03;4.82;;;2.20;;
60700;SDS011;46541;49.894;10.886;2024-02-26T13:25:34;8.70;;;2.25;;
60700;SDS011;46541;49.894;10.886;2024-02-26T13:28:08;4.75;;;3.33;;
60700;SDS011;46541;49.894;10.886;2024-02-26T13:30:36;3.83;;;2.78;;
60700;SDS011;46541;49.894;10.886;2024-02-26T13:35:38;5.97;;;2.92;;
60700;SDS011;46541;49.894;10.886;2024-02-26T13:38:05;3.60;;;2.13;;
60700;SDS011;46541;49.894;10.886;2024-02-26T13:40:32;4.57;;;2.40;;
60700;SDS011;46541;49.894;10.886;2024-02-26T13:43:00;3.33;;;1.90;;
60700;SDS011;46541;49.894;10.886;2024-02-26T13:45:27;3.58;;;2.03;;
60700;SDS011;46541;49.894;10.886;2024-02-26T13:48:07;4.22;;;2.55;;
60700;SDS011;46541;49.894;10.886;2024-02-26T13:50:38;2.35;;;1.80;;
60700;SDS011;46541;49.894;10.886;2024-02-26T13:53:05;3.50;;;2.33;;
60700;SDS011;46541;49.894;10.886;2024-02-26T13:55:32;4.30;;;2.28;;
60700;SDS011;46541;49.894;10.886;2024-02-26T13:57:59;6.13;;;5.03;;
60700;SDS011;46541;49.894;10.886;2024-02-26T14:00:29;5.55;;;4.10;;
60700;SDS011;46541;49.894;10.886;2024-02-26T14:03:00;5.80;;;3.90;;
60700;SDS011;46541;49.894;10.886;2024-02-26T14:05:28;3.63;;;2.55;;
60700;SDS011;46541;49.894;10.886;2024-02-26T14:07:55;6.35;;;3.90;;
60700;SDS011;46541;49.894;10.886;2024-02-26T14:10:23;13.68;;;5.88;;
60700;SDS011;46541;49.894;10.886;2024-02-26T14:12:50;9.45;;;4.25;;
60700;SDS011;46541;49.894;10.886;2024-02-26T14:15:17;12.93;;;6.07;;
60700;SDS011;46541;49.894;10.886;2024-02-26T14:17:44;15.93;;;8.80;;
60700;SDS011;46541;49.894;10.886;2024-02-26T14:20:12;10.27;;;4.75;;
60700;SDS011;46541;49.894;10.886;2024-02-26T14:22:39;5.57;;;2.50;;
60700;SDS011;46541;49.894;10.886;2024-02-26T14:25:06;4.30;;;2.20;;
60700;SDS011;46541;49.894;10.886;2024-02-26T14:27:35;3.35;;;2.33;;
60700;SDS011;46541;49.894;10.886;2024-02-26T14:30:02;4.43;;;2.53;;
60700;SDS011;46541;49.894;10.886;2024-02-26T14:32:29;2.38;;;1.70;;
60700;SDS011;46541;49.894;10.886;2024-02-26T14:35:05;4.40;;;2.00;;
60700;SDS011;46541;49.894;10.886;2024-02-26T14:37:42;3.78;;;2.10;;
60700;SDS011;46541;49.894;10.886;2024-02-26T14:40:13;4.78;;;2.33;;